Time;durP1;ratioP1;P1;durP2;ratioP2;P2;SDS_P1;SDS_P2;PMS_P1;PMS_P2;Temp;Humidity;BMP_temperature;BMP_pressure;BME280_temperature;BME280_humidity;BME280_pressure;Samples;Min_cycle;Max_cycle;Signal;HPM_P1;HPM_P2
2022/02/11 00:06:25;;;;;;;;;13.00;13.00;;;;;9.98;59.41;102149.44;2054676;28;46733;-55
2022/02/11 00:07:25;;;;;;;;;13.80;12.00;;;;;9.97;59.37;102150.31;2052791;28;47620;-58
2022/02/11 00:08:26;;;;;;;;;14.25;13.00;;;;;9.96;59.26;102157.38;2054715;28;47097;-56
2022/02/11 00:09:26;;;;;;;;;10.60;10.60;;;;;9.95;59.27;102155.63;2049278;28;47774;-58
2022/02/11 00:10:27;;;;;;;;;14.00;11.00;;;;;9.94;59.33;102155.63;2055006;28;47320;-56
2022/02/11 00:11:38;;;;;;;;;11.75;11.75;;;;;9.94;59.15;102164.47;2052233;28;48264;-55
2022/02/11 00:12:39;;;;;;;;;11.40;11.40;;;;;9.94;59.37;102151.19;2053529;28;48026;-59
2022/02/11 00:13:39;;;;;;;;;11.25;11.25;;;;;9.93;59.34;102154.72;2051004;28;47520;-57
2022/02/11 00:15:59;;;;;;;;;12.75;12.00;;;;;9.91;59.34;102159.16;2078809;28;47915;-57
2022/02/11 00:16:59;;;;;;;;;13.00;12.33;;;;;9.91;59.41;102160.88;2077773;28;47466;-62
2022/02/11 00:18:00;;;;;;;;;11.75;11.00;;;;;9.90;59.38;102165.31;2081644;28;47807;-58
2022/02/11 00:19:01;;;;;;;;;13.75;12.00;;;;;9.90;59.15;102165.31;2076487;28;47650;-56
2022/02/11 00:20:01;;;;;;;;;8.40;8.00;;;;;9.90;59.38;102164.41;2078323;28;47559;-55
2022/02/11 00:21:02;;;;;;;;;10.75;10.50;;;;;9.90;59.36;102167.06;2067158;28;47371;-57
2022/02/11 00:22:02;;;;;;;;;13.75;12.00;;;;;9.87;59.35;102170.59;2069834;28;47202;-58
2022/02/11 00:23:06;;;;;;;;;11.00;11.00;;;;;9.87;59.40;102167.06;2077351;28;47644;-55
2022/02/11 00:24:07;;;;;;;;;10.00;10.00;;;;;9.86;59.33;102167.94;2078768;28;47379;-58
2022/02/11 00:25:08;;;;;;;;;13.50;13.50;;;;;9.86;59.26;102163.53;2078741;28;48006;-58
2022/02/11 00:26:08;;;;;;;;;8.60;8.40;;;;;9.86;59.11;102171.47;2062980;28;47995;-53
2022/02/11 00:27:44;;;;;;;;;10.50;8.75;;;;;9.85;59.29;102163.53;2061043;28;47024;-55
2022/02/11 00:32:23;;;;;;;;;9.00;9.00;;;;;9.83;59.12;102176.78;2078984;28;47642;-56
2022/02/11 00:33:26;;;;;;;;;7.60;7.60;;;;;9.83;59.14;102160.00;2074768;28;47404;-55
2022/02/11 00:34:37;;;;;;;;;15.00;13.80;;;;;9.82;59.30;102164.41;2086496;28;47759;-57
2022/02/11 00:40:12;;;;;;;;;12.00;12.00;;;;;9.81;59.20;102161.75;2051213;28;47912;-56
2022/02/11 01:02:44;;;;;;;;;12.60;10.00;;;;;9.74;58.94;102177.63;2029321;28;47764;-53
2022/02/11 01:04:46;;;;;;;;;17.00;14.00;;;;;9.73;58.90;102178.50;2035755;28;47429;-57
2022/02/11 01:05:46;;;;;;;;;15.00;13.20;;;;;9.73;58.85;102175.84;2028812;28;47009;-58
2022/02/11 01:06:47;;;;;;;;;13.00;11.00;;;;;9.73;58.83;102182.91;2030042;28;47317;-58
2022/02/11 01:07:49;;;;;;;;;8.50;8.50;;;;;9.71;58.85;102185.56;2014084;29;47664;-61
2022/02/11 01:08:50;;;;;;;;;14.80;13.40;;;;;9.71;58.91;102180.25;2014912;29;48307;-57
2022/02/11 01:09:51;;;;;;;;;17.60;15.40;;;;;9.71;58.89;102184.66;2030573;29;47704;-58
2022/02/11 01:10:51;;;;;;;;;16.25;14.50;;;;;9.70;58.82;102182.91;2029748;29;47838;-56
2022/02/11 01:11:55;;;;;;;;;16.25;15.75;;;;;9.71;58.72;102187.31;2030313;29;47589;-56
2022/02/11 01:12:55;;;;;;;;;15.40;14.00;;;;;9.69;58.80;102187.31;2032455;28;47988;-58
2022/02/11 01:13:56;;;;;;;;;14.50;14.50;;;;;9.70;58.98;102193.50;2031498;28;47576;-57
2022/02/11 01:14:57;;;;;;;;;14.75;14.75;;;;;9.69;59.00;102192.63;2034271;28;47542;-57
2022/02/11 01:16:06;;;;;;;;;13.00;13.00;;;;;9.68;58.78;102188.19;2030644;28;47604;-57
2022/02/11 01:17:14;;;;;;;;;14.00;14.00;;;;;9.67;58.83;102186.44;2025769;29;47907;-58
2022/02/11 01:18:16;;;;;;;;;14.80;14.00;;;;;9.67;58.74;102197.03;2059306;28;48569;-57
2022/02/11 01:21:28;;;;;;;;;13.25;13.00;;;;;9.66;58.82;102197.03;2061286;28;47087;-56
2022/02/11 01:24:13;;;;;;;;;13.60;12.80;;;;;9.65;59.08;102193.47;2061431;28;47524;-59
2022/02/11 01:26:40;;;;;;;;;16.60;14.00;;;;;9.65;58.68;102201.41;2062656;28;48086;-53
2022/02/11 01:29:30;;;;;;;;;16.40;15.00;;;;;9.62;58.72;102193.44;2048024;28;47788;-56
2022/02/11 01:31:47;;;;;;;;;13.75;13.75;;;;;9.62;58.77;102203.16;2053342;28;48048;-58
2022/02/11 01:33:09;;;;;;;;;17.60;14.00;;;;;9.60;58.73;102199.63;2053409;28;48576;-56
2022/02/11 01:34:28;;;;;;;;;16.20;13.60;;;;;9.58;58.63;102204.03;2053619;28;47679;-56
2022/02/11 01:38:09;;;;;;;;;13.40;11.80;;;;;9.59;58.76;102205.81;2038151;28;47886;-58
2022/02/11 01:53:52;;;;;;;;;11.00;11.00;;;;;9.52;58.37;102223.41;1994198;29;47533;-58
2022/02/11 01:56:37;;;;;;;;;12.40;12.20;;;;;9.53;58.58;102222.56;1969348;29;48172;-56
2022/02/11 02:13:25;;;;;;;;;26.00;24.00;;;;;9.50;58.17;102242.84;1985913;29;47240;-56
2022/02/11 02:39:13;;;;;;;;;11.20;11.20;;;;;9.40;57.83;102249.81;2023938;29;47690;-56
2022/02/11 02:58:32;;;;;;;;;10.20;9.80;;;;;9.32;57.96;102273.63;1986252;29;47883;-57
2022/02/11 03:59:26;;;;;;;;;13.40;13.00;;;;;9.04;58.07;102324.56;2054603;28;47090;-56
2022/02/11 04:55:23;;;;;;;;;13.80;13.80;;;;;8.83;58.29;102402.88;2038434;28;47939;-57
2022/02/11 04:56:25;;;;;;;;;11.00;10.40;;;;;8.82;58.35;102395.81;2038767;28;48479;-53
2022/02/11 05:00:06;;;;;;;;;13.80;13.80;;;;;8.81;58.23;102399.34;2028016;29;47878;-58
2022/02/11 05:01:06;;;;;;;;;11.60;11.60;;;;;8.82;58.37;102402.88;2044052;28;48226;-56
2022/02/11 05:02:07;;;;;;;;;15.50;12.75;;;;;8.80;58.44;102407.25;2054716;28;47863;-57
2022/02/11 05:03:07;;;;;;;;;11.50;11.50;;;;;8.81;58.43;102403.75;2054563;28;47968;-58
2022/02/11 05:04:08;;;;;;;;;12.75;12.75;;;;;8.80;58.33;102413.44;2054513;28;47589;-57
2022/02/11 05:05:09;;;;;;;;;13.50;13.50;;;;;8.80;58.33;102410.78;2054693;28;47735;-57
2022/02/11 05:06:10;;;;;;;;;12.20;12.20;;;;;8.79;58.28;102416.97;2054606;28;47317;-56
2022/02/11 05:07:10;;;;;;;;;12.00;12.00;;;;;8.78;58.43;102407.25;2054647;28;48239;-57
2022/02/11 05:08:10;;;;;;;;;15.25;15.25;;;;;8.79;58.35;102414.31;2051842;28;47492;-57
2022/02/11 05:09:11;;;;;;;;;11.75;11.75;;;;;8.78;58.25;102415.19;2058914;28;47914;-57
2022/02/11 05:10:15;;;;;;;;;12.50;12.50;;;;;8.79;58.48;102418.72;2077160;28;47538;-57
2022/02/11 05:11:15;;;;;;;;;12.00;12.00;;;;;8.78;58.21;102425.78;2079691;28;47833;-57
2022/02/11 05:12:15;;;;;;;;;14.00;13.50;;;;;8.77;58.25;102420.47;2071689;28;47111;-58
2022/02/11 05:13:17;;;;;;;;;13.50;13.00;;;;;8.78;58.32;102427.53;2082146;28;48075;-58
2022/02/11 05:14:17;;;;;;;;;14.40;14.40;;;;;8.77;58.55;102431.06;2079967;28;47946;-57
2022/02/11 05:15:17;;;;;;;;;12.00;12.00;;;;;8.77;58.39;102425.75;2071209;28;47559;-58
2022/02/11 05:16:18;;;;;;;;;14.00;14.00;;;;;8.77;58.22;102428.41;2070800;28;48123;-58
2022/02/11 05:17:18;;;;;;;;;11.00;11.00;;;;;8.77;58.30;102429.28;2079681;28;47810;-59
2022/02/11 05:18:19;;;;;;;;;12.00;12.00;;;;;8.77;58.55;102418.72;2079876;28;47819;-58
2022/02/11 05:19:19;;;;;;;;;12.75;12.25;;;;;8.79;58.42;102427.56;2079528;28;47467;-56
2022/02/11 05:20:20;;;;;;;;;12.50;12.00;;;;;8.79;58.45;102421.38;2079823;28;47514;-58
2022/02/11 05:21:20;;;;;;;;;13.25;10.50;;;;;8.78;58.26;102412.53;2079962;28;47607;-56
2022/02/11 05:22:21;;;;;;;;;13.25;11.50;;;;;8.78;58.34;102423.13;2080369;28;48086;-55
2022/02/11 05:23:21;;;;;;;;;8.75;8.75;;;;;8.76;57.97;102424.84;2081018;28;47833;-57
2022/02/11 05:24:21;;;;;;;;;11.25;11.25;;;;;8.75;58.16;102428.34;2079508;28;47312;-57
2022/02/11 05:25:22;;;;;;;;;13.50;13.00;;;;;8.74;58.02;102437.16;2081077;28;47815;-56
2022/02/11 05:26:23;;;;;;;;;11.75;11.75;;;;;8.74;58.33;102436.28;2080780;28;47608;-57
2022/02/11 05:27:23;;;;;;;;;12.25;11.25;;;;;8.74;58.36;102446.88;2080312;28;47433;-54
2022/02/11 05:28:24;;;;;;;;;13.50;11.75;;;;;8.73;58.29;102440.69;2080108;28;47762;-56
2022/02/11 05:29:24;;;;;;;;;13.50;12.50;;;;;8.71;58.20;102445.06;2080864;28;47368;-56
2022/02/11 05:30:25;;;;;;;;;16.25;15.00;;;;;8.72;58.20;102445.97;2078576;28;48086;-54
2022/02/11 05:31:25;;;;;;;;;13.75;12.00;;;;;8.74;58.43;102452.16;2054166;28;47665;-58
2022/02/11 05:32:25;;;;;;;;;16.00;13.00;;;;;8.72;58.07;102446.84;2052740;28;48074;-57
2022/02/11 05:33:27;;;;;;;;;12.75;12.00;;;;;8.72;58.27;102441.56;2085952;28;47441;-55
2022/02/11 05:34:28;;;;;;;;;11.40;11.20;;;;;8.73;58.32;102442.44;2082903;28;47922;-56
2022/02/11 05:35:29;;;;;;;;;12.75;12.75;;;;;8.74;58.23;102449.50;2080062;28;47971;-56
2022/02/11 05:36:29;;;;;;;;;12.20;12.20;;;;;8.73;58.37;102447.75;2079836;28;47164;-58
2022/02/11 05:37:30;;;;;;;;;11.50;10.50;;;;;8.72;58.24;102446.84;2079863;28;47273;-58
2022/02/11 05:38:30;;;;;;;;;16.75;13.00;;;;;8.72;58.40;102446.84;2079686;28;48312;-57
2022/02/11 05:39:31;;;;;;;;;12.25;12.25;;;;;8.73;58.42;102445.09;2079777;28;47502;-57
2022/02/11 05:40:31;;;;;;;;;12.50;12.50;;;;;8.74;58.13;102445.09;2079551;28;47719;-57
2022/02/11 05:41:32;;;;;;;;;12.25;11.50;;;;;8.75;58.23;102451.28;2079654;28;47285;-57
2022/02/11 05:42:32;;;;;;;;;10.75;10.75;;;;;8.74;58.26;102458.34;2079665;28;47671;-58
2022/02/11 05:43:33;;;;;;;;;11.50;11.50;;;;;8.76;58.43;102453.94;2079608;28;47822;-57
2022/02/11 05:44:33;;;;;;;;;15.00;12.75;;;;;8.75;58.30;102454.81;2079708;28;47832;-55
2022/02/11 05:45:33;;;;;;;;;11.25;10.75;;;;;8.76;58.09;102461.00;2079630;28;47133;-56
2022/02/11 05:46:34;;;;;;;;;9.50;9.50;;;;;8.76;58.34;102458.34;2079492;28;47781;-56
2022/02/11 05:47:34;;;;;;;;;13.00;13.00;;;;;8.75;58.25;102465.41;2079645;28;47941;-58
2022/02/11 05:48:36;;;;;;;;;14.00;12.00;;;;;8.76;58.22;102461.00;2079286;28;47796;-56
2022/02/11 05:49:36;;;;;;;;;13.20;12.20;;;;;8.76;58.28;102463.66;2079345;28;47770;-57
2022/02/11 05:50:37;;;;;;;;;13.00;13.00;;;;;8.77;58.37;102468.13;2079816;28;47087;-58
2022/02/11 05:51:38;;;;;;;;;12.00;12.00;;;;;8.75;58.25;102473.34;2079471;28;47402;-57
2022/02/11 05:52:38;;;;;;;;;15.75;13.00;;;;;8.76;57.93;102468.94;2079590;28;47064;-58
2022/02/11 05:53:39;;;;;;;;;12.00;11.50;;;;;8.75;58.32;102467.16;2079752;28;47797;-57
2022/02/11 05:54:39;;;;;;;;;13.50;13.50;;;;;8.74;58.32;102468.94;2079266;28;47777;-56
2022/02/11 05:55:40;;;;;;;;;10.75;9.00;;;;;8.74;58.17;102474.22;2079781;28;47482;-56
2022/02/11 05:56:40;;;;;;;;;15.00;15.00;;;;;8.72;58.15;102473.31;2079878;28;47166;-57
2022/02/11 05:57:41;;;;;;;;;19.25;17.00;;;;;8.72;58.15;102481.25;2079637;28;47920;-57
2022/02/11 05:58:41;;;;;;;;;11.25;11.25;;;;;8.71;58.06;102483.88;2088042;28;47568;-58
2022/02/11 05:59:42;;;;;;;;;10.50;10.25;;;;;8.70;58.30;102484.75;2084338;28;47426;-57
2022/02/11 06:00:42;;;;;;;;;13.50;12.75;;;;;8.70;58.26;102487.41;2074243;28;47761;-54
2022/02/11 06:01:42;;;;;;;;;13.75;13.50;;;;;8.68;58.28;102482.09;2077975;28;47731;-57
2022/02/11 06:02:43;;;;;;;;;14.75;14.25;;;;;8.67;58.22;102488.25;2080945;28;47457;-58
2022/02/11 06:03:43;;;;;;;;;11.50;10.25;;;;;8.66;58.23;102481.19;2079710;28;47508;-56
2022/02/11 06:04:44;;;;;;;;;10.00;10.00;;;;;8.67;58.41;102487.38;2079653;28;48173;-57
2022/02/11 06:05:44;;;;;;;;;12.00;12.00;;;;;8.66;58.42;102486.47;2085057;28;47902;-58
2022/02/11 06:06:44;;;;;;;;;10.00;10.00;;;;;8.66;58.42;102486.47;2075765;28;47489;-59
2022/02/11 06:07:45;;;;;;;;;13.00;12.25;;;;;8.68;58.34;102489.16;2075944;28;47179;-57
2022/02/11 06:08:46;;;;;;;;;13.50;13.50;;;;;8.68;58.30;102494.44;2079153;28;47463;-58
2022/02/11 06:09:46;;;;;;;;;15.75;14.00;;;;;8.67;58.39;102490.91;2079094;28;48227;-55
2022/02/11 06:10:48;;;;;;;;;15.00;15.00;;;;;8.68;58.23;102492.69;2075990;28;47679;-59
2022/02/11 06:11:48;;;;;;;;;16.40;12.00;;;;;8.68;58.48;102491.78;2079446;28;48013;-55
2022/02/11 06:12:48;;;;;;;;;16.25;12.50;;;;;8.67;58.30;102488.25;2077474;28;47877;-55
2022/02/11 06:13:49;;;;;;;;;13.00;12.50;;;;;8.67;58.34;102485.63;2078454;28;47223;-57
2022/02/11 06:14:51;;;;;;;;;12.75;11.75;;;;;8.68;58.36;102486.50;2078904;28;47084;-56
2022/02/11 06:15:52;;;;;;;;;12.40;12.40;;;;;8.68;58.34;102487.38;2076978;28;47871;-56
2022/02/11 06:16:53;;;;;;;;;12.00;12.00;;;;;8.68;58.49;102487.38;2077282;28;47815;-56
2022/02/11 06:17:53;;;;;;;;;14.25;14.25;;;;;8.68;58.25;102486.50;2077509;28;48239;-53
2022/02/11 06:18:54;;;;;;;;;11.50;11.00;;;;;8.67;58.06;102485.63;2076498;28;47217;-58
2022/02/11 06:19:57;;;;;;;;;13.50;12.25;;;;;8.66;58.19;102489.13;2077970;28;47569;-56
2022/02/11 06:20:57;;;;;;;;;13.60;13.60;;;;;8.66;57.94;102486.47;2077945;28;47230;-57
2022/02/11 06:21:58;;;;;;;;;15.00;12.50;;;;;8.66;58.27;102490.88;2078633;28;47949;-56
2022/02/11 06:22:58;;;;;;;;;10.25;10.25;;;;;8.66;58.21;102490.88;2074241;28;48216;-57
2022/02/11 06:23:59;;;;;;;;;12.25;12.25;;;;;8.65;58.26;102497.94;2078484;28;47939;-58
2022/02/11 06:24:59;;;;;;;;;14.00;13.75;;;;;8.66;58.15;102498.81;2074947;28;47748;-57
2022/02/11 06:25:59;;;;;;;;;19.00;17.00;;;;;8.65;58.14;102503.22;2078774;28;47970;-58
2022/02/11 06:27:00;;;;;;;;;14.75;13.25;;;;;8.65;58.21;102503.22;2078339;28;48362;-59
2022/02/11 06:28:00;;;;;;;;;13.75;11.75;;;;;8.65;58.09;102511.16;2077547;28;47190;-57
2022/02/11 06:29:01;;;;;;;;;13.50;12.50;;;;;8.64;58.13;102509.41;2077101;28;47184;-58
2022/02/11 06:30:02;;;;;;;;;13.60;12.60;;;;;8.63;58.02;102512.88;2067397;28;48245;-60
2022/02/11 06:31:03;;;;;;;;;15.00;13.50;;;;;8.63;58.33;102514.63;2060873;28;47333;-56
2022/02/11 06:32:04;;;;;;;;;15.00;15.00;;;;;8.63;58.16;102517.28;2061598;28;48207;-57
2022/02/11 06:33:04;;;;;;;;;13.60;13.60;;;;;8.63;57.98;102519.94;2069968;28;46790;-56
2022/02/11 06:34:06;;;;;;;;;14.75;14.00;;;;;8.62;58.18;102520.81;2079160;28;48302;-55
2022/02/11 06:35:11;;;;;;;;;17.80;16.00;;;;;8.61;58.31;102519.03;2079086;28;47349;-56
2022/02/11 06:36:11;;;;;;;;;15.60;13.00;;;;;8.61;58.27;102513.72;2079452;28;46587;-54
2022/02/11 06:37:12;;;;;;;;;19.25;15.25;;;;;8.60;58.19;102518.13;2083120;28;48228;-57
2022/02/11 06:38:12;;;;;;;;;16.00;14.75;;;;;8.60;58.23;102518.13;2087493;28;47585;-57
2022/02/11 06:39:13;;;;;;;;;16.75;16.50;;;;;8.61;58.63;102524.31;2087177;28;47749;-57
2022/02/11 06:40:15;;;;;;;;;13.75;13.75;;;;;8.59;58.41;102526.06;2087438;28;47991;-56
2022/02/11 06:41:15;;;;;;;;;14.00;14.00;;;;;8.58;58.50;102525.16;2087679;28;47926;-58
2022/02/11 06:42:15;;;;;;;;;16.00;14.00;;;;;8.57;58.55;102523.38;2087744;28;47578;-57
2022/02/11 06:43:16;;;;;;;;;14.00;13.25;;;;;8.56;58.25;102529.53;2087665;28;48191;-57
2022/02/11 06:44:16;;;;;;;;;21.00;19.75;;;;;8.55;58.39;102527.78;2069796;28;47468;-54
2022/02/11 06:45:17;;;;;;;;;17.50;17.50;;;;;8.54;58.23;102532.19;2062451;28;48234;-54
2022/02/11 06:46:20;;;;;;;;;16.75;15.50;;;;;8.55;58.60;102535.72;2055599;28;47242;-57
2022/02/11 06:47:20;;;;;;;;;13.80;11.00;;;;;8.54;58.42;102539.22;2063065;28;47563;-54
2022/02/11 06:48:23;;;;;;;;;17.00;16.25;;;;;8.53;58.59;102540.09;2081312;28;46943;-57
2022/02/11 06:49:24;;;;;;;;;44.80;36.80;;;;;8.53;58.30;102538.34;2079363;28;47124;-56
2022/02/11 06:50:24;;;;;;;;;38.50;33.75;;;;;8.51;58.58;102540.06;2079239;28;47448;-56
2022/02/11 06:51:25;;;;;;;;;28.25;23.75;;;;;8.50;58.54;102535.63;2079482;28;47421;-56
2022/02/11 06:52:25;;;;;;;;;21.00;17.50;;;;;8.50;58.68;102535.63;2079537;28;47424;-55
2022/02/11 06:53:26;;;;;;;;;15.25;15.25;;;;;8.51;58.55;102539.16;2071074;28;47541;-57
2022/02/11 06:54:26;;;;;;;;;18.50;17.00;;;;;8.51;58.56;102540.06;2074438;28;47885;-56
2022/02/11 06:55:27;;;;;;;;;15.25;14.50;;;;;8.52;58.60;102540.97;2079429;28;45970;-57
2022/02/11 06:56:27;;;;;;;;;16.00;14.00;;;;;8.51;58.49;102541.78;2080544;28;48008;-56
2022/02/11 06:57:28;;;;;;;;;16.50;14.75;;;;;8.52;58.60;102546.25;2087532;28;47820;-57
2022/02/11 06:58:28;;;;;;;;;10.75;9.75;;;;;8.51;58.50;102547.09;2087582;28;47857;-57
2022/02/11 06:59:29;;;;;;;;;14.50;14.50;;;;;8.52;58.73;102554.19;2087842;28;45602;-58
2022/02/11 07:00:29;;;;;;;;;15.00;13.50;;;;;8.52;58.59;102547.13;2081411;28;47463;-57
2022/02/11 07:01:30;;;;;;;;;18.00;14.00;;;;;8.53;58.73;102548.91;2086863;28;47165;-57
2022/02/11 07:02:31;;;;;;;;;14.00;13.25;;;;;8.53;58.46;102554.22;2080549;28;47501;-58
2022/02/11 07:03:31;;;;;;;;;12.80;12.80;;;;;8.52;58.41;102557.72;2080525;28;47202;-57
2022/02/11 07:04:32;;;;;;;;;14.50;14.50;;;;;8.51;58.50;102552.38;2087560;28;47429;-58
2022/02/11 07:05:37;;;;;;;;;15.75;14.50;;;;;8.51;58.54;102541.78;2079943;28;48030;-56
2022/02/11 07:06:38;;;;;;;;;15.00;13.60;;;;;8.51;58.56;102549.72;2080550;28;47545;-58
2022/02/11 07:07:39;;;;;;;;;13.75;13.00;;;;;8.52;58.51;102551.53;2080637;28;47701;-56
2022/02/11 07:08:39;;;;;;;;;14.20;12.80;;;;;8.53;58.30;102558.63;2080236;28;47673;-56
2022/02/11 07:09:40;;;;;;;;;11.75;11.50;;;;;8.51;58.51;102555.94;2080287;28;47817;-56
2022/02/11 07:10:40;;;;;;;;;13.75;13.75;;;;;8.51;58.43;102555.03;2080538;28;47602;-57
2022/02/11 07:11:41;;;;;;;;;15.50;14.00;;;;;8.50;58.53;102562.06;2080542;28;47587;-57
2022/02/11 07:12:41;;;;;;;;;16.25;16.25;;;;;8.51;58.41;102562.97;2072979;28;48007;-56
2022/02/11 07:13:42;;;;;;;;;15.75;15.00;;;;;8.51;58.25;102568.25;2071957;28;48180;-58
2022/02/11 07:14:42;;;;;;;;;18.50;18.50;;;;;8.51;58.68;102571.81;2080389;28;48248;-58
2022/02/11 07:15:44;;;;;;;;;13.25;13.25;;;;;8.50;58.53;102574.41;2080188;28;47632;-58
2022/02/11 07:16:47;;;;;;;;;17.00;15.40;;;;;8.51;58.51;102578.84;2080393;28;47629;-57
2022/02/11 07:17:47;;;;;;;;;15.00;13.60;;;;;8.51;58.66;102581.47;2085778;28;47436;-56
2022/02/11 07:18:48;;;;;;;;;16.25;14.00;;;;;8.51;58.48;102592.06;2080478;28;47593;-58
2022/02/11 07:19:48;;;;;;;;;15.75;12.50;;;;;8.51;58.37;102594.72;2080405;28;47464;-57
2022/02/11 07:20:49;;;;;;;;;12.50;12.50;;;;;8.51;58.31;102605.31;2080423;28;47559;-57
2022/02/11 07:21:50;;;;;;;;;17.60;16.40;;;;;8.52;58.48;102607.13;2080482;28;47907;-58
2022/02/11 07:22:50;;;;;;;;;12.00;11.00;;;;;8.51;58.30;102603.56;2080751;28;48059;-57
2022/02/11 07:23:50;;;;;;;;;12.00;12.00;;;;;8.52;58.29;102608.00;2080006;28;47721;-58
2022/02/11 07:24:53;;;;;;;;;14.75;14.00;;;;;8.51;58.36;102603.56;2080272;28;47054;-58
2022/02/11 07:25:53;;;;;;;;;13.20;13.20;;;;;8.51;58.26;102608.88;2085177;28;47947;-56
2022/02/11 07:26:55;;;;;;;;;13.75;12.75;;;;;8.51;58.38;102606.22;2080634;28;47807;-58
2022/02/11 07:27:55;;;;;;;;;15.00;15.00;;;;;8.52;58.37;102610.66;2080387;28;47638;-57
2022/02/11 07:28:56;;;;;;;;;15.50;14.25;;;;;8.51;58.18;102613.25;2080415;28;47753;-58
2022/02/11 07:29:56;;;;;;;;;14.25;13.25;;;;;8.51;58.27;102615.88;2084556;28;47436;-57
2022/02/11 07:30:58;;;;;;;;;15.75;13.25;;;;;8.50;58.15;102614.09;2083092;28;47457;-55
2022/02/11 07:31:58;;;;;;;;;16.20;15.00;;;;;8.49;58.33;102615.88;2080377;28;47742;-56
2022/02/11 07:32:59;;;;;;;;;16.25;13.25;;;;;8.48;58.30;102632.59;2076421;28;47606;-57
2022/02/11 07:34:00;;;;;;;;;14.50;14.50;;;;;8.47;58.36;102630.81;2071953;28;48200;-59
2022/02/11 07:35:03;;;;;;;;;15.25;14.75;;;;;8.47;58.24;102630.81;2086543;28;47472;-56
2022/02/11 07:36:04;;;;;;;;;12.20;11.60;;;;;8.45;58.39;102635.22;2083661;28;48180;-57
2022/02/11 07:37:05;;;;;;;;;13.80;11.40;;;;;8.46;58.29;102638.75;2067940;28;47483;-58
2022/02/11 07:38:05;;;;;;;;;13.60;13.60;;;;;8.45;58.18;102635.22;2068593;28;47725;-59
2022/02/11 07:39:05;;;;;;;;;14.75;13.25;;;;;8.47;58.29;102640.53;2082997;28;47243;-57
2022/02/11 07:40:06;;;;;;;;;16.00;15.25;;;;;8.47;58.25;102643.16;2087203;28;47712;-59
2022/02/11 07:41:07;;;;;;;;;19.50;14.50;;;;;8.48;58.41;102639.66;2084570;28;47469;-59
2022/02/11 07:42:07;;;;;;;;;16.50;16.25;;;;;8.48;58.14;102642.31;2083897;28;47800;-56
2022/02/11 07:43:08;;;;;;;;;20.75;14.25;;;;;8.48;58.44;102644.94;2087745;28;47569;-57
2022/02/11 07:44:08;;;;;;;;;13.00;13.00;;;;;8.49;58.01;102652.03;2065755;28;48298;-58
2022/02/11 07:45:10;;;;;;;;;10.50;9.25;;;;;8.49;58.34;102644.09;2068179;28;47383;-59
2022/02/11 07:46:11;;;;;;;;;15.60;15.60;;;;;8.49;58.24;102652.03;2080178;28;47593;-58
2022/02/11 07:47:11;;;;;;;;;14.00;13.00;;;;;8.50;58.25;102648.50;2072693;28;47481;-55
2022/02/11 07:48:11;;;;;;;;;20.50;20.00;;;;;8.52;58.39;102657.38;2078592;28;47176;-57
2022/02/11 07:49:12;;;;;;;;;26.75;24.25;;;;;8.51;58.32;102659.16;2075197;28;47137;-58
2022/02/11 07:50:12;;;;;;;;;20.00;20.00;;;;;8.50;58.19;102657.34;2077221;28;47783;-55
2022/02/11 07:51:12;;;;;;;;;14.25;13.25;;;;;8.52;58.23;102660.03;2072782;28;47633;-56
2022/02/11 07:52:13;;;;;;;;;17.00;15.75;;;;;8.52;58.27;102652.09;2076899;28;48410;-57
2022/02/11 07:53:15;;;;;;;;;15.25;15.25;;;;;8.52;58.35;102650.34;2088328;28;47120;-60
2022/02/11 07:54:16;;;;;;;;;18.20;16.00;;;;;8.53;58.52;102665.34;2088233;28;47875;-59
2022/02/11 07:55:16;;;;;;;;;15.75;14.75;;;;;8.53;58.11;102664.47;2072887;28;48010;-58
2022/02/11 07:56:17;;;;;;;;;16.75;16.75;;;;;8.54;58.12;102663.59;2079031;28;48113;-59
2022/02/11 07:57:17;;;;;;;;;14.75;14.75;;;;;8.54;58.39;102663.59;2070827;28;48103;-55
2022/02/11 07:58:20;;;;;;;;;19.75;15.75;;;;;8.54;58.30;102660.94;2068730;28;47902;-60
2022/02/11 07:59:20;;;;;;;;;14.40;14.40;;;;;8.54;58.33;102663.59;2080357;28;47925;-57
2022/02/11 08:00:22;;;;;;;;;16.50;15.75;;;;;8.55;58.36;102662.72;2085626;28;47290;-59
2022/02/11 08:01:23;;;;;;;;;14.40;14.40;;;;;8.55;58.46;102660.97;2074904;28;47737;-58
2022/02/11 08:02:23;;;;;;;;;14.25;14.00;;;;;8.55;58.48;102666.25;2088725;28;47335;-57
2022/02/11 08:03:24;;;;;;;;;18.75;17.00;;;;;8.56;58.24;102675.09;2088522;28;47397;-57
2022/02/11 08:04:24;;;;;;;;;17.25;16.25;;;;;8.55;58.51;102663.63;2081421;28;47490;-56
2022/02/11 08:05:25;;;;;;;;;20.00;15.25;;;;;8.57;58.11;102673.34;2079777;28;48105;-58
2022/02/11 08:06:25;;;;;;;;;16.50;11.75;;;;;8.58;58.25;102678.66;2080224;28;48254;-58
2022/02/11 08:07:25;;;;;;;;;14.75;14.00;;;;;8.58;58.15;102672.47;2079624;28;47381;-57
2022/02/11 08:08:31;;;;;;;;;16.00;16.00;;;;;8.58;58.23;102678.66;2080418;28;47595;-58
2022/02/11 08:09:31;;;;;;;;;18.80;15.20;;;;;8.60;58.30;102683.97;2081563;28;48057;-56
2022/02/11 08:10:31;;;;;;;;;15.75;15.25;;;;;8.59;58.13;102679.53;2088276;28;47938;-59
2022/02/11 08:11:32;;;;;;;;;16.25;16.00;;;;;8.61;58.24;102691.03;2083005;28;47815;-57
2022/02/11 08:12:34;;;;;;;;;15.00;13.50;;;;;8.61;58.21;102684.00;2079952;28;48007;-57
2022/02/11 08:13:36;;;;;;;;;17.20;17.20;;;;;8.63;58.14;102690.19;2088626;28;47490;-60
2022/02/11 08:14:37;;;;;;;;;16.80;15.00;;;;;8.63;58.04;102687.56;2088395;28;47907;-57
2022/02/11 08:15:37;;;;;;;;;20.50;15.50;;;;;8.64;58.06;102693.75;2079694;28;48107;-58
2022/02/11 08:16:38;;;;;;;;;19.50;18.50;;;;;8.64;58.00;102684.06;2079309;28;47091;-59
2022/02/11 08:17:40;;;;;;;;;15.75;15.50;;;;;8.66;58.13;102686.75;2088410;28;47605;-56
2022/02/11 08:18:40;;;;;;;;;18.80;18.80;;;;;8.66;58.01;102692.94;2088349;28;47681;-57
2022/02/11 08:19:41;;;;;;;;;20.00;17.50;;;;;8.67;57.90;102688.53;2079499;28;47385;-57
2022/02/11 08:20:41;;;;;;;;;18.50;16.50;;;;;8.69;57.92;102694.72;2078737;28;47064;-59
2022/02/11 08:21:41;;;;;;;;;19.00;16.75;;;;;8.68;57.86;102699.13;2080158;28;48451;-59
2022/02/11 08:22:42;;;;;;;;;21.00;19.25;;;;;8.68;57.83;102699.13;2079408;28;47816;-57
2022/02/11 08:23:43;;;;;;;;;15.25;13.25;;;;;8.69;57.95;102702.66;2079994;28;47811;-59
2022/02/11 08:24:44;;;;;;;;;22.00;18.80;;;;;8.68;57.94;102704.44;2079751;28;48447;-58
2022/02/11 08:25:44;;;;;;;;;21.00;16.75;;;;;8.68;57.92;102699.13;2073828;28;47489;-59
2022/02/11 08:26:44;;;;;;;;;14.00;14.00;;;;;8.69;57.86;102703.56;2070928;28;48045;-59
2022/02/11 08:27:47;;;;;;;;;20.75;18.25;;;;;8.70;58.03;102704.44;2079769;28;47346;-58
2022/02/11 08:28:48;;;;;;;;;14.00;13.40;;;;;8.69;58.09;102703.56;2081317;28;47386;-58
2022/02/11 08:29:48;;;;;;;;;23.25;22.25;;;;;8.70;58.02;102713.28;2085852;28;47757;-56
2022/02/11 08:30:49;;;;;;;;;22.75;18.75;;;;;8.70;57.90;102712.38;2087605;28;47075;-58
2022/02/11 08:31:50;;;;;;;;;19.00;17.80;;;;;8.72;57.97;102715.94;2088350;28;47763;-57
2022/02/11 08:32:51;;;;;;;;;18.20;15.60;;;;;8.72;58.00;102711.53;2079406;28;47972;-59
2022/02/11 08:33:51;;;;;;;;;20.50;20.00;;;;;8.74;57.92;102720.41;2078927;28;47411;-60
2022/02/11 08:34:52;;;;;;;;;18.25;17.25;;;;;8.74;57.83;102716.88;2096995;28;46585;-57
2022/02/11 08:35:55;;;;;;;;;13.00;13.00;;;;;8.74;58.05;102722.16;2096650;28;48000;-59
2022/02/11 08:36:55;;;;;;;;;18.40;15.40;;;;;8.75;58.05;102724.81;2093004;28;47595;-58
2022/02/11 08:37:56;;;;;;;;;15.25;13.50;;;;;8.77;57.99;102719.59;2087355;28;45230;-58
2022/02/11 08:38:57;;;;;;;;;13.75;13.75;;;;;8.78;58.01;102729.31;2070673;28;47806;-57
2022/02/11 08:39:57;;;;;;;;;14.40;13.00;;;;;8.79;57.81;102731.97;2070603;28;47925;-53
2022/02/11 08:40:59;;;;;;;;;21.00;19.75;;;;;8.79;57.81;102726.69;2093776;28;48036;-59
2022/02/11 08:42:01;;;;;;;;;27.00;23.40;;;;;8.80;57.82;102725.81;2096421;28;48043;-58
2022/02/11 08:43:02;;;;;;;;;17.60;17.20;;;;;8.80;57.82;102725.81;2096512;28;47631;-56